Rysy — C6ZA3 — position and weather

sailwx.info

Track history (hours):
 
Tides and Currents Weather Stations Pressure Air Temp Water Temp Dewpoint Dewpoint Depression Visibility Wind Speed Wind Dir Waves Ship Positions

Rysy

Last reported at 2017-Jul-26 08:16 UTC. Time now 2017-Aug-20 15:29 UTC.
Position N 44°35' E 037°50'.
Warning: this ship's position is 25 days out of date.

Length 229 m; draft 13.3 m.

Type: Cargo ship. MMSI: 311051200.

Date/timePositionNaut miles runAvg speedWind from/ knotsBaromVisibWave heightAir tempDewpointWater temp
2017-Jul-26 08:16N 44°35' E 037°50'2 8.0
2017-Jul-26 07:59N 44°36' E 037°53'0 0.6
2017-Jul-26 07:15N 44°36' E 037°53'0 0.1
2017-Jul-26 07:00N 44°36' E 037°53'0 0.0
2017-Jul-26 06:24N 44°36' E 037°53'0 0.0
2017-Jul-26 06:00N 44°36' E 037°53'0 0.0
2017-Jul-26 05:24N 44°36' E 037°53'0 0.0
2017-Jul-26 03:54N 44°36' E 037°53'0 0.1
2017-Jul-26 03:30N 44°36' E 037°53'0 0.0
2017-Jul-26 03:00N 44°36' E 037°53'0 0.0
2017-Jul-25 13:55N 44°36' E 037°53'2 4.0
2017-Jul-25 13:30N 44°37' E 037°52'4 7.2
2017-Jul-25 13:00N 44°41' E 037°50'3 6.9
2017-Jul-25 12:30N 44°44' E 037°47'0 0.3
2017-Jul-25 11:55N 44°44' E 037°47'0 0.0
2017-Jul-25 04:58N 44°44' E 037°47'0 0.0
2017-Jul-24 11:09N 44°44' E 037°47'0 0.0
2017-Jul-24 10:45N 44°44' E 037°47'0 0.0
2017-Jul-24 10:21N 44°44' E 037°47'0 0.0
2017-Jul-24 09:57N 44°44' E 037°47'0 0.0
2017-Jul-24 09:27N 44°44' E 037°47'0 0.0
2017-Jul-24 08:39N 44°44' E 037°47'0 0.0
2017-Jul-24 08:27N 44°44' E 037°47'0 0.0
2017-Jul-24 07:39N 44°44' E 037°47'0 0.0
2017-Jul-24 05:09N 44°44' E 037°47'0 0.0
2017-Jul-24 04:57N 44°44' E 037°47'0 0.0
2017-Jul-24 04:27N 44°44' E 037°47'0 0.0
2017-Jul-24 03:45N 44°44' E 037°47'0 0.1
2017-Jul-24 00:04N 44°44' E 037°48'0 1.2
2017-Jul-23 23:58N 44°43' E 037°48'2 3.6
2017-Jul-23 23:30N 44°42' E 037°49'2 4.1
2017-Jul-23 23:01N 44°40' E 037°50'3 5.7
2017-Jul-23 22:27N 44°37' E 037°52'  
2017-Jul-20 05:14N 44°34' E 037°55'0 0.0
2017-Jul-20 04:59N 44°34' E 037°55'0 0.1
2017-Jul-20 04:29N 44°34' E 037°55'0 0.1
2017-Jul-20 03:59N 44°34' E 037°55'0 0.1
2017-Jul-20 03:29N 44°34' E 037°55'0 0.0
2017-Jul-20 02:59N 44°34' E 037°55'0 0.1
2017-Jul-20 02:29N 44°34' E 037°55'0 0.0
2017-Jul-20 01:59N 44°34' E 037°55'0 0.1
2017-Jul-20 01:29N 44°34' E 037°55'0 0.0
2017-Jul-20 00:59N 44°34' E 037°55'0 0.0
2017-Jul-20 00:29N 44°34' E 037°55'0 0.0
2017-Jul-19 23:59N 44°34' E 037°55'0 0.1
2017-Jul-19 23:29N 44°34' E 037°55'0 0.1
2017-Jul-19 22:59N 44°34' E 037°55'0 0.1
2017-Jul-19 22:29N 44°34' E 037°55'0 0.2
2017-Jul-19 21:59N 44°34' E 037°55'0 0.1
2017-Jul-19 21:29N 44°34' E 037°55'0 0.0
2017-Jul-19 20:59N 44°34' E 037°55'0 0.0
2017-Jul-19 20:29N 44°34' E 037°55'0 0.2
2017-Jul-19 19:59N 44°34' E 037°55'0 0.1
2017-Jul-19 19:29N 44°34' E 037°55'0 0.1
2017-Jul-19 18:59N 44°34' E 037°55'0 0.1
2017-Jul-19 18:29N 44°34' E 037°55'0 0.0
2017-Jul-19 17:59N 44°34' E 037°55'0 0.2
2017-Jul-19 17:29N 44°34' E 037°55'0 0.0
2017-Jul-19 16:59N 44°34' E 037°55'0 0.2
2017-Jul-19 16:29N 44°34' E 037°55'0 0.2
2017-Jul-19 15:59N 44°34' E 037°55'0 0.0
2017-Jul-19 15:29N 44°34' E 037°55'0 0.0
2017-Jul-19 14:59N 44°34' E 037°55'0 0.0
2017-Jul-19 14:29N 44°34' E 037°55'0 0.1
2017-Jul-19 13:59N 44°34' E 037°55'0 0.0
2017-Jul-19 13:29N 44°34' E 037°55'0 0.0
2017-Jul-19 12:59N 44°34' E 037°55'0 0.1
2017-Jul-19 12:29N 44°34' E 037°55'0 0.0
2017-Jul-19 11:59N 44°34' E 037°55'0 0.1
2017-Jul-19 11:29N 44°34' E 037°55'0 0.0
2017-Jul-19 10:59N 44°34' E 037°55'0 0.0
2017-Jul-19 10:29N 44°34' E 037°55'0 0.0
2017-Jul-19 09:59N 44°34' E 037°55'0 0.1
2017-Jul-19 09:29N 44°34' E 037°55'0 0.2
2017-Jul-19 08:59N 44°34' E 037°55'0 0.0
2017-Jul-19 08:29N 44°34' E 037°55'0 0.0
2017-Jul-19 07:59N 44°34' E 037°55'0 0.0
2017-Jul-19 07:29N 44°34' E 037°55'0 0.0
2017-Jul-19 06:59N 44°34' E 037°55'0 0.0
2017-Jul-19 06:29N 44°34' E 037°55'0 0.0
2017-Jul-19 05:59N 44°34' E 037°55'0 0.0
2017-Jul-19 05:29N 44°34' E 037°55'0 0.0
2017-Jul-19 04:59N 44°34' E 037°55'0 0.0
2017-Jul-19 04:29N 44°34' E 037°55'0 0.0
2017-Jul-19 03:59N 44°34' E 037°55'0 0.0
2017-Jul-19 03:29N 44°34' E 037°55'0 0.0
2017-Jul-19 02:59N 44°34' E 037°55'0 0.0
2017-Jul-19 02:29N 44°34' E 037°55'0 0.0
2017-Jul-19 01:59N 44°34' E 037°55'0 0.0
2017-Jul-19 01:29N 44°34' E 037°55'0 0.0
2017-Jul-19 00:59N 44°34' E 037°55'0 0.0
2017-Jul-19 00:29N 44°34' E 037°55'0 0.0
2017-Jul-18 23:59N 44°34' E 037°55'0 0.0
2017-Jul-18 23:29N 44°34' E 037°55'0 0.0
2017-Jul-18 22:59N 44°34' E 037°55'0 0.0
2017-Jul-18 22:29N 44°34' E 037°55'0 0.0
2017-Jul-18 21:59N 44°34' E 037°55'0 0.1
2017-Jul-18 21:29N 44°34' E 037°55'0 0.0
2017-Jul-18 20:59N 44°34' E 037°55'0 0.0
2017-Jul-18 20:29N 44°34' E 037°55'0 0.0
2017-Jul-18 19:59N 44°34' E 037°55'0 0.0
2017-Jul-18 19:29N 44°34' E 037°55'0 0.0
2017-Jul-18 18:59N 44°34' E 037°55'0 0.0
2017-Jul-18 18:29N 44°34' E 037°55'0 0.0
2017-Jul-18 17:59N 44°34' E 037°55'0 0.0
2017-Jul-18 17:29N 44°34' E 037°55'0 0.0
2017-Jul-18 16:56N 44°34' E 037°55'0 0.0
2017-Jul-18 16:29N 44°34' E 037°55'0 0.0
2017-Jul-18 15:59N 44°34' E 037°55'0 0.0
2017-Jul-18 15:29N 44°34' E 037°55'0 0.1
2017-Jul-18 14:56N 44°34' E 037°55'0 0.1
2017-Jul-18 13:59N 44°34' E 037°55'0 0.1
2017-Jul-18 13:29N 44°34' E 037°55'0 0.0
2017-Jul-18 12:59N 44°34' E 037°55'0 0.0
2017-Jul-18 12:29N 44°34' E 037°55'0 0.0
2017-Jul-18 11:59N 44°34' E 037°55'0 0.2
2017-Jul-18 11:29N 44°34' E 037°55'0 0.3
2017-Jul-18 10:59N 44°34' E 037°55'0 0.2
2017-Jul-18 10:29N 44°34' E 037°55'0 0.1
2017-Jul-18 09:59N 44°34' E 037°55'0 0.0
2017-Jul-18 09:29N 44°34' E 037°55'0 0.0
2017-Jul-18 08:59N 44°34' E 037°55'0 0.0
2017-Jul-18 08:29N 44°34' E 037°55'0 0.0
2017-Jul-18 07:59N 44°34' E 037°55'0 0.0
2017-Jul-18 07:29N 44°34' E 037°55'0 0.0
2017-Jul-18 06:59N 44°34' E 037°55'0 0.0
2017-Jul-18 06:29N 44°34' E 037°55'0 0.0
2017-Jul-18 05:59N 44°34' E 037°55'0 0.0
2017-Jul-18 05:29N 44°34' E 037°55'0 0.0
2017-Jul-18 04:59N 44°34' E 037°55'0 0.0
2017-Jul-18 04:29N 44°34' E 037°55'0 0.0
2017-Jul-18 03:59N 44°34' E 037°55'0 0.1
2017-Jul-18 03:29N 44°34' E 037°55'0 0.0
2017-Jul-18 02:59N 44°34' E 037°55'0 0.0
2017-Jul-18 02:29N 44°34' E 037°55'0 0.0
2017-Jul-18 01:59N 44°34' E 037°55'0 0.1
2017-Jul-18 01:29N 44°34' E 037°55'0 0.0
2017-Jul-18 00:59N 44°34' E 037°55'0 0.1
2017-Jul-18 00:29N 44°34' E 037°55'0 0.1
2017-Jul-17 23:59N 44°34' E 037°55'0 0.1
2017-Jul-17 23:29N 44°34' E 037°55'0 0.2
2017-Jul-17 22:59N 44°34' E 037°55'0 0.0
2017-Jul-17 22:29N 44°34' E 037°55'0 0.0
2017-Jul-17 21:59N 44°34' E 037°55'0 0.0
2017-Jul-17 21:29N 44°34' E 037°55'0 0.1
2017-Jul-17 20:59N 44°34' E 037°55'0 0.0
2017-Jul-17 20:29N 44°34' E 037°55'0 0.0
2017-Jul-17 19:59N 44°34' E 037°55'0 0.0
2017-Jul-17 19:29N 44°34' E 037°55'0 0.0
2017-Jul-17 18:58N 44°34' E 037°55'0 0.0
2017-Jul-17 18:29N 44°34' E 037°55'0 0.0
2017-Jul-17 17:58N 44°34' E 037°55'0 0.0
2017-Jul-17 17:26N 44°34' E 037°55'0 0.1
2017-Jul-17 16:59N 44°34' E 037°55'0 0.2
2017-Jul-17 16:26N 44°34' E 037°55'0 0.2
2017-Jul-17 15:59N 44°34' E 037°55'0 0.2
2017-Jul-17 15:29N 44°34' E 037°55'0 0.0
2017-Jul-17 14:59N 44°34' E 037°55'0 0.0
2017-Jul-17 14:29N 44°34' E 037°55'0 0.1
2017-Jul-17 13:59N 44°34' E 037°55'0 0.0
2017-Jul-17 13:22N 44°34' E 037°55'0 0.0
2017-Jul-17 12:58N 44°34' E 037°55'0 0.0
2017-Jul-17 12:29N 44°34' E 037°55'0 0.0
2017-Jul-17 11:59N 44°34' E 037°55'0 0.0
2017-Jul-17 11:29N 44°34' E 037°55'0 0.0
2017-Jul-17 10:58N 44°34' E 037°55'0 0.0
2017-Jul-17 10:29N 44°34' E 037°55'0 0.0
2017-Jul-17 09:58N 44°34' E 037°55'0 0.0
2017-Jul-17 09:29N 44°34' E 037°55'0 0.0
2017-Jul-17 08:58N 44°34' E 037°55'0 0.0
2017-Jul-17 08:29N 44°34' E 037°55'0 0.0
2017-Jul-17 07:59N 44°34' E 037°55'0 0.0
2017-Jul-17 07:29N 44°34' E 037°55'0 0.0
2017-Jul-17 06:58N 44°34' E 037°55'0 0.0
2017-Jul-17 06:28N 44°34' E 037°55'0 0.0
2017-Jul-17 05:59N 44°34' E 037°55'0 0.0
2017-Jul-17 05:29N 44°34' E 037°55'0 0.0
2017-Jul-17 04:58N 44°34' E 037°55'0 0.1
2017-Jul-17 04:28N 44°34' E 037°55'0 0.1
2017-Jul-17 03:58N 44°34' E 037°55'0 0.0
2017-Jul-17 03:29N 44°34' E 037°55'0 0.0
2017-Jul-17 02:59N 44°34' E 037°55'0 0.0
2017-Jul-17 02:28N 44°34' E 037°55'0 0.0
2017-Jul-17 01:59N 44°34' E 037°55'0 0.1
2017-Jul-17 01:25N 44°34' E 037°55'0 0.0
2017-Jul-17 00:59N 44°34' E 037°55'0 0.0
2017-Jul-17 00:28N 44°34' E 037°55'0 0.1
2017-Jul-16 23:59N 44°34' E 037°55'0 0.1
2017-Jul-16 23:19N 44°34' E 037°55'0 0.0
2017-Jul-16 22:58N 44°34' E 037°55'0 0.1
2017-Jul-16 22:28N 44°34' E 037°55'0 0.1
2017-Jul-16 21:58N 44°34' E 037°55'0 0.1
2017-Jul-16 21:28N 44°34' E 037°55'0 0.1
2017-Jul-16 20:58N 44°34' E 037°55'0 0.1
2017-Jul-16 20:28N 44°34' E 037°55'0 0.0
2017-Jul-16 19:59N 44°34' E 037°55'0 0.1
2017-Jul-16 19:28N 44°34' E 037°55'0 0.0
2017-Jul-16 18:58N 44°34' E 037°55'0 0.0
2017-Jul-16 18:28N 44°34' E 037°55'0 0.0
2017-Jul-16 17:58N 44°34' E 037°55'0 0.1
2017-Jul-16 17:28N 44°34' E 037°55'0 0.0
2017-Jul-16 16:58N 44°34' E 037°55'0 0.1
2017-Jul-16 16:25N 44°34' E 037°55'0 0.1
2017-Jul-16 15:58N 44°34' E 037°55'0 0.0
2017-Jul-16 15:28N 44°34' E 037°55'0 0.1
2017-Jul-16 14:55N 44°34' E 037°55'0 0.0
2017-Jul-16 14:28N 44°34' E 037°55'0 0.0
2017-Jul-16 13:58N 44°34' E 037°55'0 0.1
2017-Jul-16 13:28N 44°34' E 037°55'0 0.0
2017-Jul-16 12:58N 44°34' E 037°55'0 0.0
2017-Jul-16 12:28N 44°34' E 037°55'0 0.2
2017-Jul-16 11:58N 44°34' E 037°55'0 0.1
2017-Jul-16 11:28N 44°34' E 037°55'0 0.1
2017-Jul-16 10:55N 44°34' E 037°55'0 0.0
2017-Jul-16 10:28N 44°34' E 037°55'0 0.0
2017-Jul-16 09:58N 44°34' E 037°55'0 0.0
2017-Jul-16 09:28N 44°34' E 037°55'0 0.0
2017-Jul-16 08:58N 44°34' E 037°55'0 0.0
2017-Jul-16 08:28N 44°34' E 037°55'  
Track history (hours):
 
Tides and Currents Weather Stations Pressure Air Temp Water Temp Dewpoint Dewpoint Depression Visibility Wind Speed Wind Dir Waves Ship Positions

Rysy

Last reported at 2017-Jul-26 08:16 UTC. Time now 2017-Aug-20 15:29 UTC.
Position N 44°35' E 037°50'.
Warning: this ship's position is 25 days out of date.

Length 229 m; draft 13.3 m.

Type: Cargo ship. MMSI: 311051200.

Date/timePositionNaut miles runAvg speedWind from/ knotsBaromVisibWave heightAir tempDewpointWater temp
2017-Jul-26 08:16N 44°35' E 037°50'2 8.0
2017-Jul-26 07:59N 44°36' E 037°53'0 0.6
2017-Jul-26 07:15N 44°36' E 037°53'0 0.1
2017-Jul-26 07:00N 44°36' E 037°53'0 0.0
2017-Jul-26 06:24N 44°36' E 037°53'0 0.0
2017-Jul-26 06:00N 44°36' E 037°53'0 0.0
2017-Jul-26 05:24N 44°36' E 037°53'0 0.0
2017-Jul-26 03:54N 44°36' E 037°53'0 0.1
2017-Jul-26 03:30N 44°36' E 037°53'0 0.0
2017-Jul-26 03:00N 44°36' E 037°53'0 0.0
2017-Jul-25 13:55N 44°36' E 037°53'2 4.0
2017-Jul-25 13:30N 44°37' E 037°52'4 7.2
2017-Jul-25 13:00N 44°41' E 037°50'3 6.9
2017-Jul-25 12:30N 44°44' E 037°47'0 0.3
2017-Jul-25 11:55N 44°44' E 037°47'0 0.0
2017-Jul-25 04:58N 44°44' E 037°47'0 0.0
2017-Jul-24 11:09N 44°44' E 037°47'0 0.0
2017-Jul-24 10:45N 44°44' E 037°47'0 0.0
2017-Jul-24 10:21N 44°44' E 037°47'0 0.0
2017-Jul-24 09:57N 44°44' E 037°47'0 0.0
2017-Jul-24 09:27N 44°44' E 037°47'0 0.0
2017-Jul-24 08:39N 44°44' E 037°47'0 0.0
2017-Jul-24 08:27N 44°44' E 037°47'0 0.0
2017-Jul-24 07:39N 44°44' E 037°47'0 0.0
2017-Jul-24 05:09N 44°44' E 037°47'0 0.0
2017-Jul-24 04:57N 44°44' E 037°47'0 0.0
2017-Jul-24 04:27N 44°44' E 037°47'0 0.0
2017-Jul-24 03:45N 44°44' E 037°47'0 0.1
2017-Jul-24 00:04N 44°44' E 037°48'0 1.2
2017-Jul-23 23:58N 44°43' E 037°48'2 3.6
2017-Jul-23 23:30N 44°42' E 037°49'2 4.1
2017-Jul-23 23:01N 44°40' E 037°50'3 5.7
2017-Jul-23 22:27N 44°37' E 037°52'  
2017-Jul-20 05:14N 44°34' E 037°55'0 0.0
2017-Jul-20 04:59N 44°34' E 037°55'0 0.1
2017-Jul-20 04:29N 44°34' E 037°55'0 0.1
2017-Jul-20 03:59N 44°34' E 037°55'0 0.1
2017-Jul-20 03:29N 44°34' E 037°55'0 0.0
2017-Jul-20 02:59N 44°34' E 037°55'0 0.1
2017-Jul-20 02:29N 44°34' E 037°55'0 0.0
2017-Jul-20 01:59N 44°34' E 037°55'0 0.1
2017-Jul-20 01:29N 44°34' E 037°55'0 0.0
2017-Jul-20 00:59N 44°34' E 037°55'0 0.0
2017-Jul-20 00:29N 44°34' E 037°55'0 0.0
2017-Jul-19 23:59N 44°34' E 037°55'0 0.1
2017-Jul-19 23:29N 44°34' E 037°55'0 0.1
2017-Jul-19 22:59N 44°34' E 037°55'0 0.1
2017-Jul-19 22:29N 44°34' E 037°55'0 0.2
2017-Jul-19 21:59N 44°34' E 037°55'0 0.1
2017-Jul-19 21:29N 44°34' E 037°55'0 0.0
2017-Jul-19 20:59N 44°34' E 037°55'0 0.0
2017-Jul-19 20:29N 44°34' E 037°55'0 0.2
2017-Jul-19 19:59N 44°34' E 037°55'0 0.1
2017-Jul-19 19:29N 44°34' E 037°55'0 0.1
2017-Jul-19 18:59N 44°34' E 037°55'0 0.1
2017-Jul-19 18:29N 44°34' E 037°55'0 0.0
2017-Jul-19 17:59N 44°34' E 037°55'0 0.2
2017-Jul-19 17:29N 44°34' E 037°55'0 0.0
2017-Jul-19 16:59N 44°34' E 037°55'0 0.2
2017-Jul-19 16:29N 44°34' E 037°55'0 0.2
2017-Jul-19 15:59N 44°34' E 037°55'0 0.0
2017-Jul-19 15:29N 44°34' E 037°55'0 0.0
2017-Jul-19 14:59N 44°34' E 037°55'0 0.0
2017-Jul-19 14:29N 44°34' E 037°55'0 0.1
2017-Jul-19 13:59N 44°34' E 037°55'0 0.0
2017-Jul-19 13:29N 44°34' E 037°55'0 0.0
2017-Jul-19 12:59N 44°34' E 037°55'0 0.1
2017-Jul-19 12:29N 44°34' E 037°55'0 0.0
2017-Jul-19 11:59N 44°34' E 037°55'0 0.1
2017-Jul-19 11:29N 44°34' E 037°55'0 0.0
2017-Jul-19 10:59N 44°34' E 037°55'0 0.0
2017-Jul-19 10:29N 44°34' E 037°55'0 0.0
2017-Jul-19 09:59N 44°34' E 037°55'0 0.1
2017-Jul-19 09:29N 44°34' E 037°55'0 0.2
2017-Jul-19 08:59N 44°34' E 037°55'0 0.0
2017-Jul-19 08:29N 44°34' E 037°55'0 0.0
2017-Jul-19 07:59N 44°34' E 037°55'0 0.0
2017-Jul-19 07:29N 44°34' E 037°55'0 0.0
2017-Jul-19 06:59N 44°34' E 037°55'0 0.0
2017-Jul-19 06:29N 44°34' E 037°55'0 0.0
2017-Jul-19 05:59N 44°34' E 037°55'0 0.0
2017-Jul-19 05:29N 44°34' E 037°55'0 0.0
2017-Jul-19 04:59N 44°34' E 037°55'0 0.0
2017-Jul-19 04:29N 44°34' E 037°55'0 0.0
2017-Jul-19 03:59N 44°34' E 037°55'0 0.0
2017-Jul-19 03:29N 44°34' E 037°55'0 0.0
2017-Jul-19 02:59N 44°34' E 037°55'0 0.0
2017-Jul-19 02:29N 44°34' E 037°55'0 0.0
2017-Jul-19 01:59N 44°34' E 037°55'0 0.0
2017-Jul-19 01:29N 44°34' E 037°55'0 0.0
2017-Jul-19 00:59N 44°34' E 037°55'0 0.0
2017-Jul-19 00:29N 44°34' E 037°55'0 0.0
2017-Jul-18 23:59N 44°34' E 037°55'0 0.0
2017-Jul-18 23:29N 44°34' E 037°55'0 0.0
2017-Jul-18 22:59N 44°34' E 037°55'0 0.0
2017-Jul-18 22:29N 44°34' E 037°55'0 0.0
2017-Jul-18 21:59N 44°34' E 037°55'0 0.1
2017-Jul-18 21:29N 44°34' E 037°55'0 0.0
2017-Jul-18 20:59N 44°34' E 037°55'0 0.0
2017-Jul-18 20:29N 44°34' E 037°55'0 0.0
2017-Jul-18 19:59N 44°34' E 037°55'0 0.0
2017-Jul-18 19:29N 44°34' E 037°55'0 0.0
2017-Jul-18 18:59N 44°34' E 037°55'0 0.0
2017-Jul-18 18:29N 44°34' E 037°55'0 0.0
2017-Jul-18 17:59N 44°34' E 037°55'0 0.0
2017-Jul-18 17:29N 44°34' E 037°55'0 0.0
2017-Jul-18 16:56N 44°34' E 037°55'0 0.0
2017-Jul-18 16:29N 44°34' E 037°55'0 0.0
2017-Jul-18 15:59N 44°34' E 037°55'0 0.0
2017-Jul-18 15:29N 44°34' E 037°55'0 0.1
2017-Jul-18 14:56N 44°34' E 037°55'0 0.1
2017-Jul-18 13:59N 44°34' E 037°55'0 0.1
2017-Jul-18 13:29N 44°34' E 037°55'0 0.0
2017-Jul-18 12:59N 44°34' E 037°55'0 0.0
2017-Jul-18 12:29N 44°34' E 037°55'0 0.0
2017-Jul-18 11:59N 44°34' E 037°55'0 0.2
2017-Jul-18 11:29N 44°34' E 037°55'0 0.3
2017-Jul-18 10:59N 44°34' E 037°55'0 0.2
2017-Jul-18 10:29N 44°34' E 037°55'0 0.1
2017-Jul-18 09:59N 44°34' E 037°55'0 0.0
2017-Jul-18 09:29N 44°34' E 037°55'0 0.0
2017-Jul-18 08:59N 44°34' E 037°55'0 0.0
2017-Jul-18 08:29N 44°34' E 037°55'0 0.0
2017-Jul-18 07:59N 44°34' E 037°55'0 0.0
2017-Jul-18 07:29N 44°34' E 037°55'0 0.0
2017-Jul-18 06:59N 44°34' E 037°55'0 0.0
2017-Jul-18 06:29N 44°34' E 037°55'0 0.0
2017-Jul-18 05:59N 44°34' E 037°55'0 0.0
2017-Jul-18 05:29N 44°34' E 037°55'0 0.0
2017-Jul-18 04:59N 44°34' E 037°55'0 0.0
2017-Jul-18 04:29N 44°34' E 037°55'0 0.0
2017-Jul-18 03:59N 44°34' E 037°55'0 0.1
2017-Jul-18 03:29N 44°34' E 037°55'0 0.0
2017-Jul-18 02:59N 44°34' E 037°55'0 0.0
2017-Jul-18 02:29N 44°34' E 037°55'0 0.0
2017-Jul-18 01:59N 44°34' E 037°55'0 0.1
2017-Jul-18 01:29N 44°34' E 037°55'0 0.0
2017-Jul-18 00:59N 44°34' E 037°55'0 0.1
2017-Jul-18 00:29N 44°34' E 037°55'0 0.1
2017-Jul-17 23:59N 44°34' E 037°55'0 0.1
2017-Jul-17 23:29N 44°34' E 037°55'0 0.2
2017-Jul-17 22:59N 44°34' E 037°55'0 0.0
2017-Jul-17 22:29N 44°34' E 037°55'0 0.0
2017-Jul-17 21:59N 44°34' E 037°55'0 0.0
2017-Jul-17 21:29N 44°34' E 037°55'0 0.1
2017-Jul-17 20:59N 44°34' E 037°55'0 0.0
2017-Jul-17 20:29N 44°34' E 037°55'0 0.0
2017-Jul-17 19:59N 44°34' E 037°55'0 0.0
2017-Jul-17 19:29N 44°34' E 037°55'0 0.0
2017-Jul-17 18:58N 44°34' E 037°55'0 0.0
2017-Jul-17 18:29N 44°34' E 037°55'0 0.0
2017-Jul-17 17:58N 44°34' E 037°55'0 0.0
2017-Jul-17 17:26N 44°34' E 037°55'0 0.1
2017-Jul-17 16:59N 44°34' E 037°55'0 0.2
2017-Jul-17 16:26N 44°34' E 037°55'0 0.2
2017-Jul-17 15:59N 44°34' E 037°55'0 0.2
2017-Jul-17 15:29N 44°34' E 037°55'0 0.0
2017-Jul-17 14:59N 44°34' E 037°55'0 0.0
2017-Jul-17 14:29N 44°34' E 037°55'0 0.1
2017-Jul-17 13:59N 44°34' E 037°55'0 0.0
2017-Jul-17 13:22N 44°34' E 037°55'0 0.0
2017-Jul-17 12:58N 44°34' E 037°55'0 0.0
2017-Jul-17 12:29N 44°34' E 037°55'0 0.0
2017-Jul-17 11:59N 44°34' E 037°55'0 0.0
2017-Jul-17 11:29N 44°34' E 037°55'0 0.0
2017-Jul-17 10:58N 44°34' E 037°55'0 0.0
2017-Jul-17 10:29N 44°34' E 037°55'0 0.0
2017-Jul-17 09:58N 44°34' E 037°55'0 0.0
2017-Jul-17 09:29N 44°34' E 037°55'0 0.0
2017-Jul-17 08:58N 44°34' E 037°55'0 0.0
2017-Jul-17 08:29N 44°34' E 037°55'0 0.0
2017-Jul-17 07:59N 44°34' E 037°55'0 0.0
2017-Jul-17 07:29N 44°34' E 037°55'0 0.0
2017-Jul-17 06:58N 44°34' E 037°55'0 0.0
2017-Jul-17 06:28N 44°34' E 037°55'0 0.0
2017-Jul-17 05:59N 44°34' E 037°55'0 0.0
2017-Jul-17 05:29N 44°34' E 037°55'0 0.0
2017-Jul-17 04:58N 44°34' E 037°55'0 0.1
2017-Jul-17 04:28N 44°34' E 037°55'0 0.1
2017-Jul-17 03:58N 44°34' E 037°55'0 0.0
2017-Jul-17 03:29N 44°34' E 037°55'0 0.0
2017-Jul-17 02:59N 44°34' E 037°55'0 0.0
2017-Jul-17 02:28N 44°34' E 037°55'0 0.0
2017-Jul-17 01:59N 44°34' E 037°55'0 0.1
2017-Jul-17 01:25N 44°34' E 037°55'0 0.0
2017-Jul-17 00:59N 44°34' E 037°55'0 0.0
2017-Jul-17 00:28N 44°34' E 037°55'0 0.1
2017-Jul-16 23:59N 44°34' E 037°55'0 0.1
2017-Jul-16 23:19N 44°34' E 037°55'0 0.0
2017-Jul-16 22:58N 44°34' E 037°55'0 0.1
2017-Jul-16 22:28N 44°34' E 037°55'0 0.1
2017-Jul-16 21:58N 44°34' E 037°55'0 0.1
2017-Jul-16 21:28N 44°34' E 037°55'0 0.1
2017-Jul-16 20:58N 44°34' E 037°55'0 0.1
2017-Jul-16 20:28N 44°34' E 037°55'0 0.0
2017-Jul-16 19:59N 44°34' E 037°55'0 0.1
2017-Jul-16 19:28N 44°34' E 037°55'0 0.0
2017-Jul-16 18:58N 44°34' E 037°55'0 0.0
2017-Jul-16 18:28N 44°34' E 037°55'0 0.0
2017-Jul-16 17:58N 44°34' E 037°55'0 0.1
2017-Jul-16 17:28N 44°34' E 037°55'0 0.0
2017-Jul-16 16:58N 44°34' E 037°55'0 0.1
2017-Jul-16 16:25N 44°34' E 037°55'0 0.1
2017-Jul-16 15:58N 44°34' E 037°55'0 0.0
2017-Jul-16 15:28N 44°34' E 037°55'0 0.1
2017-Jul-16 14:55N 44°34' E 037°55'0 0.0
2017-Jul-16 14:28N 44°34' E 037°55'0 0.0
2017-Jul-16 13:58N 44°34' E 037°55'0 0.1
2017-Jul-16 13:28N 44°34' E 037°55'0 0.0
2017-Jul-16 12:58N 44°34' E 037°55'0 0.0
2017-Jul-16 12:28N 44°34' E 037°55'0 0.2
2017-Jul-16 11:58N 44°34' E 037°55'0 0.1
2017-Jul-16 11:28N 44°34' E 037°55'0 0.1
2017-Jul-16 10:55N 44°34' E 037°55'0 0.0
2017-Jul-16 10:28N 44°34' E 037°55'0 0.0
2017-Jul-16 09:58N 44°34' E 037°55'0 0.0
2017-Jul-16 09:28N 44°34' E 037°55'0 0.0
2017-Jul-16 08:58N 44°34' E 037°55'0 0.0
2017-Jul-16 08:28N 44°34' E 037°55'  

Dump ship's entire track history